sensor_id;sensor_type;location;lat;lon;timestamp;temperature;humidity
6252;DHT22;3159;52.414;9.784;2023-09-19T00:02:26;18.00;99.90
6252;DHT22;3159;52.414;9.784;2023-09-19T00:04:54;18.10;99.90
6252;DHT22;3159;52.414;9.784;2023-09-19T00:07:21;18.20;99.90
6252;DHT22;3159;52.414;9.784;2023-09-19T00:09:48;18.20;99.90
6252;DHT22;3159;52.414;9.784;2023-09-19T00:12:16;18.20;99.90
6252;DHT22;3159;52.414;9.784;2023-09-19T00:14:43;18.00;99.90
6252;DHT22;3159;52.414;9.784;2023-09-19T00:17:12;18.00;99.90
6252;DHT22;3159;52.414;9.784;2023-09-19T00:19:39;18.00;99.90
6252;DHT22;3159;52.414;9.784;2023-09-19T00:22:08;17.90;99.90
6252;DHT22;3159;52.414;9.784;2023-09-19T00:24:35;18.00;99.90
6252;DHT22;3159;52.414;9.784;2023-09-19T00:27:03;18.10;99.90
6252;DHT22;3159;52.414;9.784;2023-09-19T00:29:31;17.90;99.90
6252;DHT22;3159;52.414;9.784;2023-09-19T00:31:58;17.90;99.90
6252;DHT22;3159;52.414;9.784;2023-09-19T00:34:27;17.90;99.90
6252;DHT22;3159;52.414;9.784;2023-09-19T00:36:55;17.80;99.90
6252;DHT22;3159;52.414;9.784;2023-09-19T00:39:22;17.70;99.90
6252;DHT22;3159;52.414;9.784;2023-09-19T00:41:51;17.80;99.90
6252;DHT22;3159;52.414;9.784;2023-09-19T00:44:18;17.80;99.90
6252;DHT22;3159;52.414;9.784;2023-09-19T00:46:46;17.70;99.90
6252;DHT22;3159;52.414;9.784;2023-09-19T00:49:14;17.70;99.90
6252;DHT22;3159;52.414;9.784;2023-09-19T00:51:43;17.70;99.90
6252;DHT22;3159;52.414;9.784;2023-09-19T00:54:13;17.60;99.90
6252;DHT22;3159;52.414;9.784;2023-09-19T00:56:44;17.70;99.90
6252;DHT22;3159;52.414;9.784;2023-09-19T00:59:11;17.70;99.90
6252;DHT22;3159;52.414;9.784;2023-09-19T01:01:39;17.70;99.90
6252;DHT22;3159;52.414;9.784;2023-09-19T01:04:07;17.60;99.90
6252;DHT22;3159;52.414;9.784;2023-09-19T01:06:35;17.60;99.90
6252;DHT22;3159;52.414;9.784;2023-09-19T01:09:03;17.60;99.90
6252;DHT22;3159;52.414;9.784;2023-09-19T01:11:35;17.70;99.90
6252;DHT22;3159;52.414;9.784;2023-09-19T01:14:13;17.60;99.90
6252;DHT22;3159;52.414;9.784;2023-09-19T01:16:47;17.60;99.90
6252;DHT22;3159;52.414;9.784;2023-09-19T01:22:29;17.50;99.90
6252;DHT22;3159;52.414;9.784;2023-09-19T01:25:33;17.60;99.90
6252;DHT22;3159;52.414;9.784;2023-09-19T01:28:29;17.60;99.90
6252;DHT22;3159;52.414;9.784;2023-09-19T01:31:04;17.50;99.90
6252;DHT22;3159;52.414;9.784;2023-09-19T01:33:53;17.60;99.90
6252;DHT22;3159;52.414;9.784;2023-09-19T01:36:22;17.60;99.90
6252;DHT22;3159;52.414;9.784;2023-09-19T01:38:50;17.60;99.90
6252;DHT22;3159;52.414;9.784;2023-09-19T01:41:21;17.50;99.90
6252;DHT22;3159;52.414;9.784;2023-09-19T01:43:50;17.50;99.90
6252;DHT22;3159;52.414;9.784;2023-09-19T01:46:24;17.50;99.90
6252;DHT22;3159;52.414;9.784;2023-09-19T01:48:58;17.50;99.90
6252;DHT22;3159;52.414;9.784;2023-09-19T01:51:34;17.60;99.90
6252;DHT22;3159;52.414;9.784;2023-09-19T01:54:09;17.60;99.90
6252;DHT22;3159;52.414;9.784;2023-09-19T01:56:40;17.50;99.90
6252;DHT22;3159;52.414;9.784;2023-09-19T01:59:14;17.60;99.90
6252;DHT22;3159;52.414;9.784;2023-09-19T02:01:44;17.60;99.90
6252;DHT22;3159;52.414;9.784;2023-09-19T02:04:12;17.60;99.90
6252;DHT22;3159;52.414;9.784;2023-09-19T02:06:40;17.60;99.90
6252;DHT22;3159;52.414;9.784;2023-09-19T02:09:07;17.60;99.90
6252;DHT22;3159;52.414;9.784;2023-09-19T02:11:34;17.50;99.90
6252;DHT22;3159;52.414;9.784;2023-09-19T02:14:02;17.60;99.90
6252;DHT22;3159;52.414;9.784;2023-09-19T02:16:30;17.60;99.90
6252;DHT22;3159;52.414;9.784;2023-09-19T02:18:58;17.60;99.90
6252;DHT22;3159;52.414;9.784;2023-09-19T02:21:30;17.60;99.90
6252;DHT22;3159;52.414;9.784;2023-09-19T02:23:58;17.70;99.90
6252;DHT22;3159;52.414;9.784;2023-09-19T02:26:25;17.70;99.90
6252;DHT22;3159;52.414;9.784;2023-09-19T02:28:52;17.60;99.90
6252;DHT22;3159;52.414;9.784;2023-09-19T02:31:19;17.60;99.90
6252;DHT22;3159;52.414;9.784;2023-09-19T02:33:46;17.60;99.90
6252;DHT22;3159;52.414;9.784;2023-09-19T02:36:15;17.50;99.90
6252;DHT22;3159;52.414;9.784;2023-09-19T02:38:43;17.60;99.90
6252;DHT22;3159;52.414;9.784;2023-09-19T02:41:10;17.60;99.90
6252;DHT22;3159;52.414;9.784;2023-09-19T02:43:37;17.50;99.90
6252;DHT22;3159;52.414;9.784;2023-09-19T02:46:04;17.50;99.90
6252;DHT22;3159;52.414;9.784;2023-09-19T02:48:31;17.50;99.90
6252;DHT22;3159;52.414;9.784;2023-09-19T02:51:00;17.40;99.90
6252;DHT22;3159;52.414;9.784;2023-09-19T02:53:29;17.40;99.90
6252;DHT22;3159;52.414;9.784;2023-09-19T02:55:57;17.30;99.90
6252;DHT22;3159;52.414;9.784;2023-09-19T02:58:24;17.30;99.90
6252;DHT22;3159;52.414;9.784;2023-09-19T03:00:53;17.30;99.90
6252;DHT22;3159;52.414;9.784;2023-09-19T03:03:20;17.20;99.90
6252;DHT22;3159;52.414;9.784;2023-09-19T03:05:48;17.10;99.90
6252;DHT22;3159;52.414;9.784;2023-09-19T03:08:17;17.20;99.90
6252;DHT22;3159;52.414;9.784;2023-09-19T03:10:47;17.20;99.90
6252;DHT22;3159;52.414;9.784;2023-09-19T03:13:14;17.20;99.90
6252;DHT22;3159;52.414;9.784;2023-09-19T03:15:41;17.20;99.90
6252;DHT22;3159;52.414;9.784;2023-09-19T03:18:12;17.20;99.90
6252;DHT22;3159;52.414;9.784;2023-09-19T03:20:39;17.20;99.90
6252;DHT22;3159;52.414;9.784;2023-09-19T03:23:07;17.10;99.90
6252;DHT22;3159;52.414;9.784;2023-09-19T03:25:35;17.10;99.90
6252;DHT22;3159;52.414;9.784;2023-09-19T03:28:05;17.20;99.90
6252;DHT22;3159;52.414;9.784;2023-09-19T03:30:33;17.20;99.90
6252;DHT22;3159;52.414;9.784;2023-09-19T03:33:00;17.20;99.90
6252;DHT22;3159;52.414;9.784;2023-09-19T03:35:27;17.30;99.90
6252;DHT22;3159;52.414;9.784;2023-09-19T03:37:54;17.20;99.90
6252;DHT22;3159;52.414;9.784;2023-09-19T03:40:21;17.10;99.90
6252;DHT22;3159;52.414;9.784;2023-09-19T03:42:49;17.20;99.90
6252;DHT22;3159;52.414;9.784;2023-09-19T03:45:17;17.00;99.90
6252;DHT22;3159;52.414;9.784;2023-09-19T03:47:44;16.90;99.90
6252;DHT22;3159;52.414;9.784;2023-09-19T03:50:12;16.90;99.90
6252;DHT22;3159;52.414;9.784;2023-09-19T03:52:43;16.90;99.90
6252;DHT22;3159;52.414;9.784;2023-09-19T03:55:10;16.90;99.90
6252;DHT22;3159;52.414;9.784;2023-09-19T03:57:37;16.90;99.90
6252;DHT22;3159;52.414;9.784;2023-09-19T04:00:05;16.90;99.90
6252;DHT22;3159;52.414;9.784;2023-09-19T04:02:38;16.80;99.90
6252;DHT22;3159;52.414;9.784;2023-09-19T04:05:05;16.80;99.90
6252;DHT22;3159;52.414;9.784;2023-09-19T04:07:32;16.80;99.90
6252;DHT22;3159;52.414;9.784;2023-09-19T04:10:01;16.80;99.90
6252;DHT22;3159;52.414;9.784;2023-09-19T04:12:29;16.80;99.90
6252;DHT22;3159;52.414;9.784;2023-09-19T04:14:56;16.70;99.90
6252;DHT22;3159;52.414;9.784;2023-09-19T04:17:23;16.70;99.90
6252;DHT22;3159;52.414;9.784;2023-09-19T04:19:51;16.80;99.90
6252;DHT22;3159;52.414;9.784;2023-09-19T04:22:19;16.70;99.90
6252;DHT22;3159;52.414;9.784;2023-09-19T04:24:45;16.70;99.90
6252;DHT22;3159;52.414;9.784;2023-09-19T04:27:12;16.70;99.90
6252;DHT22;3159;52.414;9.784;2023-09-19T04:29:40;16.70;99.90
6252;DHT22;3159;52.414;9.784;2023-09-19T04:32:07;16.70;99.90
6252;DHT22;3159;52.414;9.784;2023-09-19T04:34:35;16.60;99.90
6252;DHT22;3159;52.414;9.784;2023-09-19T04:37:05;16.70;99.90
6252;DHT22;3159;52.414;9.784;2023-09-19T04:39:32;16.60;99.90
6252;DHT22;3159;52.414;9.784;2023-09-19T04:41:59;16.70;99.90
6252;DHT22;3159;52.414;9.784;2023-09-19T04:44:26;16.70;99.90
6252;DHT22;3159;52.414;9.784;2023-09-19T04:46:53;16.80;99.90
6252;DHT22;3159;52.414;9.784;2023-09-19T04:49:20;16.70;99.90
6252;DHT22;3159;52.414;9.784;2023-09-19T04:51:47;16.70;99.90
6252;DHT22;3159;52.414;9.784;2023-09-19T04:54:15;16.70;99.90
6252;DHT22;3159;52.414;9.784;2023-09-19T04:56:43;16.60;99.90
6252;DHT22;3159;52.414;9.784;2023-09-19T04:59:10;16.60;99.90
6252;DHT22;3159;52.414;9.784;2023-09-19T05:01:37;16.50;99.90
6252;DHT22;3159;52.414;9.784;2023-09-19T05:04:04;16.60;99.90
6252;DHT22;3159;52.414;9.784;2023-09-19T05:06:31;16.50;99.90
6252;DHT22;3159;52.414;9.784;2023-09-19T05:09:01;16.60;99.90
6252;DHT22;3159;52.414;9.784;2023-09-19T05:11:33;16.50;99.90
6252;DHT22;3159;52.414;9.784;2023-09-19T05:14:02;16.40;99.90
6252;DHT22;3159;52.414;9.784;2023-09-19T05:16:29;16.50;99.90
6252;DHT22;3159;52.414;9.784;2023-09-19T05:18:57;16.50;99.90
6252;DHT22;3159;52.414;9.784;2023-09-19T05:21:25;16.50;99.90
6252;DHT22;3159;52.414;9.784;2023-09-19T05:23:54;16.40;99.90
6252;DHT22;3159;52.414;9.784;2023-09-19T05:26:21;16.30;99.90
6252;DHT22;3159;52.414;9.784;2023-09-19T05:28:50;16.40;99.90
6252;DHT22;3159;52.414;9.784;2023-09-19T05:31:18;16.30;99.90
6252;DHT22;3159;52.414;9.784;2023-09-19T05:33:46;16.20;99.90
6252;DHT22;3159;52.414;9.784;2023-09-19T05:36:12;16.20;99.90
6252;DHT22;3159;52.414;9.784;2023-09-19T05:38:41;16.20;99.90
6252;DHT22;3159;52.414;9.784;2023-09-19T05:41:11;16.20;99.90
6252;DHT22;3159;52.414;9.784;2023-09-19T05:43:39;16.20;99.90
6252;DHT22;3159;52.414;9.784;2023-09-19T05:46:08;16.30;99.90
6252;DHT22;3159;52.414;9.784;2023-09-19T05:48:35;16.30;99.90
6252;DHT22;3159;52.414;9.784;2023-09-19T05:51:02;16.20;99.90
6252;DHT22;3159;52.414;9.784;2023-09-19T05:53:28;16.10;99.90
6252;DHT22;3159;52.414;9.784;2023-09-19T05:55:55;16.20;99.90
6252;DHT22;3159;52.414;9.784;2023-09-19T05:58:23;16.20;99.90
6252;DHT22;3159;52.414;9.784;2023-09-19T06:00:50;16.10;99.90
6252;DHT22;3159;52.414;9.784;2023-09-19T06:03:19;16.10;99.90
6252;DHT22;3159;52.414;9.784;2023-09-19T06:05:46;16.10;99.90
6252;DHT22;3159;52.414;9.784;2023-09-19T06:08:14;16.10;99.90
6252;DHT22;3159;52.414;9.784;2023-09-19T06:10:42;16.00;99.90
6252;DHT22;3159;52.414;9.784;2023-09-19T06:13:09;16.10;99.90
6252;DHT22;3159;52.414;9.784;2023-09-19T06:15:36;16.30;99.90
6252;DHT22;3159;52.414;9.784;2023-09-19T06:18:03;16.30;99.90
6252;DHT22;3159;52.414;9.784;2023-09-19T06:20:33;16.30;99.90
6252;DHT22;3159;52.414;9.784;2023-09-19T06:22:59;16.50;99.90
6252;DHT22;3159;52.414;9.784;2023-09-19T06:25:27;16.50;99.90
6252;DHT22;3159;52.414;9.784;2023-09-19T06:27:54;16.50;99.90
6252;DHT22;3159;52.414;9.784;2023-09-19T06:30:23;16.60;99.90
6252;DHT22;3159;52.414;9.784;2023-09-19T06:32:55;16.60;99.90
6252;DHT22;3159;52.414;9.784;2023-09-19T06:35:22;16.60;99.90
6252;DHT22;3159;52.414;9.784;2023-09-19T06:37:50;16.80;99.90
6252;DHT22;3159;52.414;9.784;2023-09-19T06:40:18;16.90;99.90
6252;DHT22;3159;52.414;9.784;2023-09-19T06:42:46;17.10;99.90
6252;DHT22;3159;52.414;9.784;2023-09-19T06:45:14;17.10;99.90
6252;DHT22;3159;52.414;9.784;2023-09-19T06:47:44;17.10;99.90
6252;DHT22;3159;52.414;9.784;2023-09-19T06:50:11;17.30;99.90
6252;DHT22;3159;52.414;9.784;2023-09-19T06:52:40;17.30;99.90
6252;DHT22;3159;52.414;9.784;2023-09-19T06:55:09;17.50;99.90
6252;DHT22;3159;52.414;9.784;2023-09-19T06:57:38;17.60;99.90
6252;DHT22;3159;52.414;9.784;2023-09-19T07:00:07;17.60;99.90
6252;DHT22;3159;52.414;9.784;2023-09-19T07:02:40;17.80;99.90
6252;DHT22;3159;52.414;9.784;2023-09-19T07:05:08;17.80;99.90
6252;DHT22;3159;52.414;9.784;2023-09-19T07:07:35;17.70;99.90
6252;DHT22;3159;52.414;9.784;2023-09-19T07:10:02;17.70;99.90
6252;DHT22;3159;52.414;9.784;2023-09-19T07:12:32;17.80;99.90
6252;DHT22;3159;52.414;9.784;2023-09-19T07:14:59;17.90;99.90
6252;DHT22;3159;52.414;9.784;2023-09-19T07:17:26;18.10;99.90
6252;DHT22;3159;52.414;9.784;2023-09-19T07:19:55;18.10;99.90
6252;DHT22;3159;52.414;9.784;2023-09-19T07:22:23;18.20;99.90
6252;DHT22;3159;52.414;9.784;2023-09-19T07:24:51;18.20;99.90
6252;DHT22;3159;52.414;9.784;2023-09-19T07:27:18;18.60;99.90
6252;DHT22;3159;52.414;9.784;2023-09-19T07:29:46;18.60;99.90
6252;DHT22;3159;52.414;9.784;2023-09-19T07:32:14;18.70;99.90
6252;DHT22;3159;52.414;9.784;2023-09-19T07:34:42;18.80;99.90
6252;DHT22;3159;52.414;9.784;2023-09-19T07:37:10;18.80;99.90
6252;DHT22;3159;52.414;9.784;2023-09-19T07:39:40;18.60;99.90
6252;DHT22;3159;52.414;9.784;2023-09-19T07:42:07;19.00;99.90
6252;DHT22;3159;52.414;9.784;2023-09-19T07:44:35;18.80;99.90
6252;DHT22;3159;52.414;9.784;2023-09-19T07:47:04;19.00;99.90
6252;DHT22;3159;52.414;9.784;2023-09-19T07:49:30;19.10;99.90
6252;DHT22;3159;52.414;9.784;2023-09-19T07:51:57;19.20;99.90
6252;DHT22;3159;52.414;9.784;2023-09-19T07:54:24;19.20;99.90
6252;DHT22;3159;52.414;9.784;2023-09-19T07:56:52;19.20;99.90
6252;DHT22;3159;52.414;9.784;2023-09-19T07:59:21;19.30;99.90
6252;DHT22;3159;52.414;9.784;2023-09-19T08:01:48;19.40;99.90
6252;DHT22;3159;52.414;9.784;2023-09-19T08:04:16;19.30;99.90
6252;DHT22;3159;52.414;9.784;2023-09-19T08:06:44;19.30;99.90
6252;DHT22;3159;52.414;9.784;2023-09-19T08:09:11;19.20;99.90
6252;DHT22;3159;52.414;9.784;2023-09-19T08:11:42;19.10;99.90
6252;DHT22;3159;52.414;9.784;2023-09-19T08:14:11;19.20;99.90
6252;DHT22;3159;52.414;9.784;2023-09-19T08:16:40;19.10;99.90
6252;DHT22;3159;52.414;9.784;2023-09-19T08:19:09;19.20;99.90
6252;DHT22;3159;52.414;9.784;2023-09-19T08:21:38;18.90;99.90
6252;DHT22;3159;52.414;9.784;2023-09-19T08:24:05;18.70;99.90
6252;DHT22;3159;52.414;9.784;2023-09-19T08:26:34;18.80;99.90
6252;DHT22;3159;52.414;9.784;2023-09-19T08:29:03;19.00;99.90
6252;DHT22;3159;52.414;9.784;2023-09-19T08:31:32;18.70;99.90
6252;DHT22;3159;52.414;9.784;2023-09-19T08:33:59;18.70;99.90
6252;DHT22;3159;52.414;9.784;2023-09-19T08:36:26;18.60;99.90
6252;DHT22;3159;52.414;9.784;2023-09-19T08:38:55;18.80;99.90
6252;DHT22;3159;52.414;9.784;2023-09-19T08:41:21;19.20;99.90
6252;DHT22;3159;52.414;9.784;2023-09-19T08:43:48;19.30;99.90
6252;DHT22;3159;52.414;9.784;2023-09-19T08:46:16;18.90;99.90
6252;DHT22;3159;52.414;9.784;2023-09-19T08:48:46;18.80;99.90
6252;DHT22;3159;52.414;9.784;2023-09-19T08:51:18;18.90;99.90
6252;DHT22;3159;52.414;9.784;2023-09-19T08:53:51;18.80;99.90
6252;DHT22;3159;52.414;9.784;2023-09-19T08:56:22;19.10;99.90
6252;DHT22;3159;52.414;9.784;2023-09-19T08:58:57;19.20;99.90
6252;DHT22;3159;52.414;9.784;2023-09-19T09:01:28;19.20;99.90
6252;DHT22;3159;52.414;9.784;2023-09-19T09:03:55;19.40;99.90
6252;DHT22;3159;52.414;9.784;2023-09-19T09:06:25;19.30;99.90
6252;DHT22;3159;52.414;9.784;2023-09-19T09:08:53;19.30;99.90
6252;DHT22;3159;52.414;9.784;2023-09-19T09:11:23;19.30;99.90
6252;DHT22;3159;52.414;9.784;2023-09-19T09:13:53;19.40;99.90
6252;DHT22;3159;52.414;9.784;2023-09-19T09:16:20;19.40;99.90
6252;DHT22;3159;52.414;9.784;2023-09-19T09:18:51;19.80;99.90
6252;DHT22;3159;52.414;9.784;2023-09-19T09:21:20;19.50;99.90
6252;DHT22;3159;52.414;9.784;2023-09-19T09:23:47;19.20;99.90
6252;DHT22;3159;52.414;9.784;2023-09-19T09:26:15;19.20;99.90
6252;DHT22;3159;52.414;9.784;2023-09-19T09:28:46;19.10;99.90
6252;DHT22;3159;52.414;9.784;2023-09-19T09:31:22;19.20;99.90
6252;DHT22;3159;52.414;9.784;2023-09-19T09:33:53;19.70;99.90
6252;DHT22;3159;52.414;9.784;2023-09-19T09:36:33;19.40;99.90
6252;DHT22;3159;52.414;9.784;2023-09-19T09:39:02;19.40;99.90
6252;DHT22;3159;52.414;9.784;2023-09-19T09:41:42;19.80;99.90
6252;DHT22;3159;52.414;9.784;2023-09-19T09:44:17;19.80;99.90
6252;DHT22;3159;52.414;9.784;2023-09-19T09:46:46;19.80;99.90
6252;DHT22;3159;52.414;9.784;2023-09-19T09:49:48;20.00;99.90
6252;DHT22;3159;52.414;9.784;2023-09-19T09:52:20;19.80;99.90
6252;DHT22;3159;52.414;9.784;2023-09-19T09:54:59;19.70;99.90
6252;DHT22;3159;52.414;9.784;2023-09-19T09:57:27;19.70;99.90
6252;DHT22;3159;52.414;9.784;2023-09-19T09:59:57;19.90;99.90
6252;DHT22;3159;52.414;9.784;2023-09-19T10:02:42;19.80;99.90
6252;DHT22;3159;52.414;9.784;2023-09-19T10:05:13;20.10;99.90
6252;DHT22;3159;52.414;9.784;2023-09-19T10:07:58;20.20;99.90
6252;DHT22;3159;52.414;9.784;2023-09-19T10:10:39;20.20;99.90
6252;DHT22;3159;52.414;9.784;2023-09-19T10:13:20;20.70;99.90
6252;DHT22;3159;52.414;9.784;2023-09-19T10:15:51;21.00;99.90
6252;DHT22;3159;52.414;9.784;2023-09-19T10:18:21;21.00;99.90
6252;DHT22;3159;52.414;9.784;2023-09-19T10:20:49;20.90;99.90
6252;DHT22;3159;52.414;9.784;2023-09-19T10:23:17;20.80;99.90
6252;DHT22;3159;52.414;9.784;2023-09-19T10:25:51;20.40;99.90
6252;DHT22;3159;52.414;9.784;2023-09-19T10:28:20;20.80;99.90
6252;DHT22;3159;52.414;9.784;2023-09-19T10:30:50;20.30;99.90
6252;DHT22;3159;52.414;9.784;2023-09-19T10:33:19;20.50;99.90
6252;DHT22;3159;52.414;9.784;2023-09-19T10:35:49;20.40;99.90
6252;DHT22;3159;52.414;9.784;2023-09-19T10:38:18;20.10;99.90
6252;DHT22;3159;52.414;9.784;2023-09-19T10:40:49;20.00;99.90
6252;DHT22;3159;52.414;9.784;2023-09-19T10:43:18;20.10;99.90
6252;DHT22;3159;52.414;9.784;2023-09-19T10:45:45;20.30;99.90
6252;DHT22;3159;52.414;9.784;2023-09-19T10:48:17;20.10;99.90
6252;DHT22;3159;52.414;9.784;2023-09-19T10:50:48;20.10;99.90
6252;DHT22;3159;52.414;9.784;2023-09-19T10:53:17;20.10;99.90
6252;DHT22;3159;52.414;9.784;2023-09-19T10:55:52;20.20;99.90
6252;DHT22;3159;52.414;9.784;2023-09-19T10:58:28;20.10;99.90
6252;DHT22;3159;52.414;9.784;2023-09-19T11:00:56;20.20;99.90
6252;DHT22;3159;52.414;9.784;2023-09-19T11:03:29;20.10;99.90
6252;DHT22;3159;52.414;9.784;2023-09-19T11:06:01;20.50;99.90
6252;DHT22;3159;52.414;9.784;2023-09-19T11:08:55;21.00;99.90
6252;DHT22;3159;52.414;9.784;2023-09-19T11:11:40;20.40;99.90
6252;DHT22;3159;52.414;9.784;2023-09-19T11:14:14;20.20;99.90
6252;DHT22;3159;52.414;9.784;2023-09-19T11:20:20;20.60;99.90
6252;DHT22;3159;52.414;9.784;2023-09-19T11:23:25;20.60;99.90
6252;DHT22;3159;52.414;9.784;2023-09-19T11:25:53;20.70;99.90
6252;DHT22;3159;52.414;9.784;2023-09-19T11:28:30;20.80;99.90
6252;DHT22;3159;52.414;9.784;2023-09-19T11:30:57;20.90;99.90
6252;DHT22;3159;52.414;9.784;2023-09-19T11:33:25;21.00;99.90
6252;DHT22;3159;52.414;9.784;2023-09-19T11:36:05;21.00;99.90
6252;DHT22;3159;52.414;9.784;2023-09-19T11:39:01;21.00;99.90
6252;DHT22;3159;52.414;9.784;2023-09-19T11:41:38;20.80;99.90
6252;DHT22;3159;52.414;9.784;2023-09-19T11:44:34;20.80;99.90
6252;DHT22;3159;52.414;9.784;2023-09-19T11:47:02;20.80;99.90
6252;DHT22;3159;52.414;9.784;2023-09-19T11:49:32;20.70;99.90
6252;DHT22;3159;52.414;9.784;2023-09-19T11:52:02;20.90;99.90
6252;DHT22;3159;52.414;9.784;2023-09-19T11:54:32;21.00;99.90
6252;DHT22;3159;52.414;9.784;2023-09-19T11:57:00;21.20;99.90
6252;DHT22;3159;52.414;9.784;2023-09-19T11:59:29;21.30;99.90
6252;DHT22;3159;52.414;9.784;2023-09-19T12:01:57;21.30;99.90
6252;DHT22;3159;52.414;9.784;2023-09-19T12:04:34;21.00;99.90
6252;DHT22;3159;52.414;9.784;2023-09-19T12:07:06;21.10;99.90
6252;DHT22;3159;52.414;9.784;2023-09-19T12:09:38;21.00;99.90
6252;DHT22;3159;52.414;9.784;2023-09-19T12:12:06;20.60;99.90
6252;DHT22;3159;52.414;9.784;2023-09-19T12:14:34;20.60;99.90
6252;DHT22;3159;52.414;9.784;2023-09-19T12:17:02;20.40;99.90
6252;DHT22;3159;52.414;9.784;2023-09-19T12:19:30;20.30;99.90
6252;DHT22;3159;52.414;9.784;2023-09-19T12:21:58;20.60;99.90
6252;DHT22;3159;52.414;9.784;2023-09-19T12:24:31;20.60;99.90
6252;DHT22;3159;52.414;9.784;2023-09-19T12:27:03;20.40;99.90
6252;DHT22;3159;52.414;9.784;2023-09-19T12:29:42;20.50;99.90
6252;DHT22;3159;52.414;9.784;2023-09-19T12:32:10;20.50;99.90
6252;DHT22;3159;52.414;9.784;2023-09-19T12:34:37;20.30;99.90
6252;DHT22;3159;52.414;9.784;2023-09-19T12:37:09;20.00;99.90
6252;DHT22;3159;52.414;9.784;2023-09-19T12:39:43;20.00;99.90
6252;DHT22;3159;52.414;9.784;2023-09-19T12:42:15;20.30;99.90
6252;DHT22;3159;52.414;9.784;2023-09-19T12:44:44;20.40;99.90
6252;DHT22;3159;52.414;9.784;2023-09-19T12:47:13;20.10;99.90
6252;DHT22;3159;52.414;9.784;2023-09-19T12:50:11;20.30;99.90
6252;DHT22;3159;52.414;9.784;2023-09-19T12:52:44;20.30;99.90
6252;DHT22;3159;52.414;9.784;2023-09-19T12:55:23;20.60;99.90
6252;DHT22;3159;52.414;9.784;2023-09-19T12:58:01;20.30;99.90
6252;DHT22;3159;52.414;9.784;2023-09-19T13:00:36;20.10;99.90
6252;DHT22;3159;52.414;9.784;2023-09-19T13:03:17;20.30;99.90
6252;DHT22;3159;52.414;9.784;2023-09-19T13:05:51;20.30;99.90
6252;DHT22;3159;52.414;9.784;2023-09-19T13:08:24;20.40;99.90
6252;DHT22;3159;52.414;9.784;2023-09-19T13:11:04;20.70;99.90
6252;DHT22;3159;52.414;9.784;2023-09-19T13:13:32;20.90;99.90
6252;DHT22;3159;52.414;9.784;2023-09-19T13:16:02;21.00;99.90
6252;DHT22;3159;52.414;9.784;2023-09-19T13:18:30;21.50;99.90
6252;DHT22;3159;52.414;9.784;2023-09-19T13:21:08;21.80;99.90
6252;DHT22;3159;52.414;9.784;2023-09-19T13:23:41;22.00;99.90
6252;DHT22;3159;52.414;9.784;2023-09-19T13:26:10;21.70;99.90
6252;DHT22;3159;52.414;9.784;2023-09-19T13:28:38;21.80;99.90
6252;DHT22;3159;52.414;9.784;2023-09-19T13:31:05;22.00;99.90
6252;DHT22;3159;52.414;9.784;2023-09-19T13:33:34;21.70;99.90
6252;DHT22;3159;52.414;9.784;2023-09-19T13:36:01;21.40;99.90
6252;DHT22;3159;52.414;9.784;2023-09-19T13:38:28;21.20;99.90
6252;DHT22;3159;52.414;9.784;2023-09-19T13:40:55;21.50;99.90
6252;DHT22;3159;52.414;9.784;2023-09-19T13:43:23;21.60;99.90
6252;DHT22;3159;52.414;9.784;2023-09-19T13:45:50;21.80;99.90
6252;DHT22;3159;52.414;9.784;2023-09-19T13:48:17;21.80;99.90
6252;DHT22;3159;52.414;9.784;2023-09-19T13:50:48;21.70;99.90
6252;DHT22;3159;52.414;9.784;2023-09-19T13:53:15;21.80;99.90
6252;DHT22;3159;52.414;9.784;2023-09-19T13:55:43;21.90;99.90
6252;DHT22;3159;52.414;9.784;2023-09-19T13:58:10;21.60;99.90
6252;DHT22;3159;52.414;9.784;2023-09-19T14:00:41;21.40;99.90
6252;DHT22;3159;52.414;9.784;2023-09-19T14:03:08;21.40;99.90
6252;DHT22;3159;52.414;9.784;2023-09-19T14:05:36;21.70;99.90
6252;DHT22;3159;52.414;9.784;2023-09-19T14:08:03;22.10;99.90
6252;DHT22;3159;52.414;9.784;2023-09-19T14:10:30;22.00;99.90
6252;DHT22;3159;52.414;9.784;2023-09-19T14:12:58;21.90;99.90
6252;DHT22;3159;52.414;9.784;2023-09-19T14:15:25;21.70;99.90
6252;DHT22;3159;52.414;9.784;2023-09-19T14:17:58;21.80;99.90
6252;DHT22;3159;52.414;9.784;2023-09-19T14:20:26;21.80;99.90
6252;DHT22;3159;52.414;9.784;2023-09-19T14:22:53;21.60;99.90
6252;DHT22;3159;52.414;9.784;2023-09-19T14:25:20;21.50;99.90
6252;DHT22;3159;52.414;9.784;2023-09-19T14:27:48;21.10;99.90
6252;DHT22;3159;52.414;9.784;2023-09-19T14:30:15;21.50;99.90
6252;DHT22;3159;52.414;9.784;2023-09-19T14:32:42;21.20;99.90
6252;DHT22;3159;52.414;9.784;2023-09-19T14:35:10;21.40;99.90
6252;DHT22;3159;52.414;9.784;2023-09-19T14:37:40;21.60;99.90
6252;DHT22;3159;52.414;9.784;2023-09-19T14:40:09;21.30;99.90
6252;DHT22;3159;52.414;9.784;2023-09-19T14:42:39;21.30;99.90
6252;DHT22;3159;52.414;9.784;2023-09-19T14:45:07;21.30;99.90
6252;DHT22;3159;52.414;9.784;2023-09-19T14:47:34;21.10;99.90
6252;DHT22;3159;52.414;9.784;2023-09-19T14:50:03;21.20;99.90
6252;DHT22;3159;52.414;9.784;2023-09-19T14:52:33;21.00;99.90
6252;DHT22;3159;52.414;9.784;2023-09-19T14:55:01;21.00;99.90
6252;DHT22;3159;52.414;9.784;2023-09-19T14:57:30;20.90;99.90
6252;DHT22;3159;52.414;9.784;2023-09-19T14:59:57;20.80;99.90
6252;DHT22;3159;52.414;9.784;2023-09-19T15:02:24;20.80;99.90
6252;DHT22;3159;52.414;9.784;2023-09-19T15:04:51;20.60;99.90
6252;DHT22;3159;52.414;9.784;2023-09-19T15:07:18;20.80;99.90
6252;DHT22;3159;52.414;9.784;2023-09-19T15:09:47;20.90;99.90
6252;DHT22;3159;52.414;9.784;2023-09-19T15:12:14;21.00;99.90
6252;DHT22;3159;52.414;9.784;2023-09-19T15:14:42;21.00;99.90
6252;DHT22;3159;52.414;9.784;2023-09-19T15:17:09;21.00;99.90
6252;DHT22;3159;52.414;9.784;2023-09-19T15:19:36;20.70;99.90
6252;DHT22;3159;52.414;9.784;2023-09-19T15:22:05;20.70;99.90
6252;DHT22;3159;52.414;9.784;2023-09-19T15:24:32;20.60;99.90
6252;DHT22;3159;52.414;9.784;2023-09-19T15:27:01;20.90;99.90
6252;DHT22;3159;52.414;9.784;2023-09-19T15:29:28;21.10;99.90
6252;DHT22;3159;52.414;9.784;2023-09-19T15:31:55;21.10;99.90
6252;DHT22;3159;52.414;9.784;2023-09-19T15:34:27;21.20;99.90
6252;DHT22;3159;52.414;9.784;2023-09-19T15:36:55;21.30;99.90
6252;DHT22;3159;52.414;9.784;2023-09-19T15:39:22;21.20;99.90
6252;DHT22;3159;52.414;9.784;2023-09-19T15:41:49;21.50;99.90
6252;DHT22;3159;52.414;9.784;2023-09-19T15:44:19;21.60;99.90
6252;DHT22;3159;52.414;9.784;2023-09-19T15:46:46;21.50;99.90
6252;DHT22;3159;52.414;9.784;2023-09-19T15:49:14;21.50;99.90
6252;DHT22;3159;52.414;9.784;2023-09-19T15:51:41;21.50;99.90
6252;DHT22;3159;52.414;9.784;2023-09-19T15:54:11;21.10;99.90
6252;DHT22;3159;52.414;9.784;2023-09-19T15:56:40;20.90;99.90
6252;DHT22;3159;52.414;9.784;2023-09-19T15:59:08;20.70;99.90
6252;DHT22;3159;52.414;9.784;2023-09-19T16:01:37;20.50;99.90
6252;DHT22;3159;52.414;9.784;2023-09-19T16:04:06;20.70;99.90
6252;DHT22;3159;52.414;9.784;2023-09-19T16:06:37;20.60;99.90
6252;DHT22;3159;52.414;9.784;2023-09-19T16:09:04;20.40;99.90
6252;DHT22;3159;52.414;9.784;2023-09-19T16:11:33;20.50;99.90
6252;DHT22;3159;52.414;9.784;2023-09-19T16:14:01;20.40;99.90
6252;DHT22;3159;52.414;9.784;2023-09-19T16:16:29;20.50;99.90
6252;DHT22;3159;52.414;9.784;2023-09-19T16:19:00;20.50;99.90
6252;DHT22;3159;52.414;9.784;2023-09-19T16:21:29;20.50;99.90
6252;DHT22;3159;52.414;9.784;2023-09-19T16:23:58;20.40;99.90
6252;DHT22;3159;52.414;9.784;2023-09-19T16:26:25;20.30;99.90